Time;durP1;ratioP1;P1;durP2;ratioP2;P2;SDS_P1;SDS_P2;PMS_P1;PMS_P2;Temp;Humidity;BMP_temperature;BMP_pressure;BME280_temperature;BME280_humidity;BME280_pressure;Samples;Min_cycle;Max_cycle;Signal;HPM_P1;HPM_P2
2022/07/24 04:22:47;;;;;;;18.17;11.60;;;;;;;17.27;98.03;100555.47;5089244;28;21019;-62
2022/07/24 04:25:13;;;;;;;18.95;11.73;;;;;;;17.25;98.27;100557.56;5088990;28;20048;-63
2022/07/24 04:27:38;;;;;;;18.63;11.38;;;;;;;17.26;98.81;100563.75;5089226;28;20043;-62
2022/07/24 04:30:05;;;;;;;20.48;11.45;;;;;;;17.22;98.42;100560.69;5087591;28;20042;-63
2022/07/24 04:32:30;;;;;;;15.90;11.05;;;;;;;17.25;98.54;100559.41;5089541;28;20392;-61
2022/07/24 04:34:56;;;;;;;16.88;10.95;;;;;;;17.26;98.15;100561.91;5089102;28;20036;-62
2022/07/24 04:37:21;;;;;;;18.90;12.57;;;;;;;17.30;98.19;100559.63;5089097;28;20036;-63
2022/07/24 04:39:47;;;;;;;17.60;12.93;;;;;;;17.33;98.13;100559.19;5088690;28;20044;-62
2022/07/24 04:42:12;;;;;;;24.33;13.43;;;;;;;17.36;97.18;100564.19;5088846;28;20051;-62
2022/07/24 04:44:38;;;;;;;21.58;14.13;;;;;;;17.39;97.40;100562.91;5088831;28;20032;-61
2022/07/24 04:47:03;;;;;;;30.38;15.98;;;;;;;17.42;97.75;100563.34;5088852;28;20033;-62
2022/07/24 04:49:28;;;;;;;23.02;14.63;;;;;;;17.44;98.25;100565.81;5088455;28;20028;-63
2022/07/24 04:51:54;;;;;;;18.58;12.45;;;;;;;17.47;98.67;100568.06;5088886;28;20393;-62
2022/07/24 04:54:19;;;;;;;18.92;12.20;;;;;;;17.53;98.78;100565.38;5088740;28;20485;-63
2022/07/24 04:56:45;;;;;;;23.10;13.45;;;;;;;17.58;98.01;100573.66;5088684;28;20477;-62
2022/07/24 04:59:10;;;;;;;18.35;11.80;;;;;;;17.62;97.05;100579.44;5088240;28;20124;-63
2022/07/24 05:01:35;;;;;;;19.60;13.82;;;;;;;17.70;97.07;100581.09;5088562;28;20048;-63
2022/07/24 05:04:01;;;;;;;20.45;13.73;;;;;;;17.73;96.76;100564.50;5088683;28;20047;-62
2022/07/24 05:06:26;;;;;;;21.10;13.60;;;;;;;17.83;96.62;100571.13;5088407;28;20175;-63
2022/07/24 05:08:52;;;;;;;22.30;13.90;;;;;;;17.91;95.18;100570.03;5088353;28;20039;-63
2022/07/24 05:11:17;;;;;;;25.20;13.80;;;;;;;18.00;94.03;100571.47;5088217;28;20044;-62
2022/07/24 05:13:43;;;;;;;22.58;14.07;;;;;;;18.10;93.14;100571.81;5087094;28;20051;-63
2022/07/24 05:16:08;;;;;;;22.67;14.07;;;;;;;18.20;92.36;100575.94;5088199;28;20044;-63
2022/07/24 05:18:33;;;;;;;19.27;11.82;;;;;;;18.35;89.91;100573.78;5088234;28;20063;-63
2022/07/24 05:20:59;;;;;;;18.48;13.40;;;;;;;18.48;89.21;100572.88;5086628;28;20439;-62
2022/07/24 05:23:24;;;;;;;19.83;13.45;;;;;;;18.54;89.02;100572.84;5088344;28;20119;-60
2022/07/24 05:25:50;;;;;;;16.52;11.90;;;;;;;18.63;88.11;100566.13;5087062;28;20401;-62
2022/07/24 05:28:16;;;;;;;19.88;12.13;;;;;;;18.73;87.83;100565.69;5088421;28;20443;-62
2022/07/24 05:30:42;;;;;;;19.55;12.35;;;;;;;18.80;87.72;100563.75;5086555;28;20043;-62
2022/07/24 05:33:07;;;;;;;18.30;12.32;;;;;;;18.89;87.31;100572.41;5080140;28;20032;-62
2022/07/24 05:35:33;;;;;;;17.98;10.95;;;;;;;18.97;85.78;100572.13;5074535;28;20033;-62
2022/07/24 05:38:10;;;;;;;18.83;12.27;;;;;;;19.02;85.77;100571.47;5074471;28;20044;-65
2022/07/24 05:40:36;;;;;;;18.55;12.05;;;;;;;19.13;85.15;100566.19;5074123;28;20051;-66
2022/07/24 05:43:01;;;;;;;20.80;12.40;;;;;;;19.23;84.19;100565.66;5074374;28;20508;-68
2022/07/24 05:45:27;;;;;;;17.83;11.82;;;;;;;19.31;84.08;100572.69;5074291;28;20043;-66
2022/07/24 05:47:52;;;;;;;20.27;11.93;;;;;;;19.37;84.06;100569.09;5074291;28;20509;-67
2022/07/24 05:50:17;;;;;;;18.38;11.88;;;;;;;19.42;84.49;100569.22;5073952;28;20497;-67
2022/07/24 05:52:43;;;;;;;17.20;11.77;;;;;;;19.46;85.01;100570.44;5074080;28;20432;-67
2022/07/24 05:55:09;;;;;;;21.85;11.90;;;;;;;19.53;84.89;100576.59;5074155;28;20024;-66
2022/07/24 05:57:34;;;;;;;20.23;13.30;;;;;;;19.62;84.60;100571.75;5072816;28;20041;-66
2022/07/24 06:00:00;;;;;;;16.45;11.65;;;;;;;19.72;84.05;100569.34;5062517;28;20078;-67
2022/07/24 06:02:25;;;;;;;18.52;12.60;;;;;;;19.82;83.51;100560.69;5070298;28;20033;-68
2022/07/24 06:04:51;;;;;;;19.40;12.93;;;;;;;19.92;83.14;100569.13;5073649;28;20032;-66
2022/07/24 06:07:16;;;;;;;18.88;12.45;;;;;;;20.00;82.56;100566.91;5073721;28;20046;-65
2022/07/24 06:09:42;;;;;;;17.25;12.43;;;;;;;20.09;81.79;100570.16;5072637;28;20101;-67
2022/07/24 06:12:08;;;;;;;17.20;11.15;;;;;;;20.16;80.91;100567.38;5073789;28;20040;-66
2022/07/24 06:14:33;;;;;;;19.48;11.85;;;;;;;20.25;79.61;100569.50;5073414;28;20040;-66
2022/07/24 06:16:59;;;;;;;18.30;11.50;;;;;;;20.37;79.93;100566.03;5073340;28;20052;-66
2022/07/24 06:19:25;;;;;;;16.20;11.18;;;;;;;20.44;79.69;100567.59;5054592;28;20047;-67
2022/07/24 06:21:50;;;;;;;19.08;11.20;;;;;;;20.51;79.60;100559.41;5073317;28;20047;-53
2022/07/24 06:24:16;;;;;;;16.73;10.82;;;;;;;20.61;78.97;100566.97;5073347;28;20489;-52
2022/07/24 06:26:42;;;;;;;16.52;11.05;;;;;;;20.67;77.15;100572.28;5073114;28;20037;-53
2022/07/24 06:29:07;;;;;;;17.75;11.18;;;;;;;20.76;75.52;100565.47;5061964;28;20049;-54
2022/07/24 06:31:32;;;;;;;14.43;10.00;;;;;;;20.82;75.25;100567.25;5053558;28;20086;-53
2022/07/24 06:33:58;;;;;;;17.15;10.77;;;;;;;20.90;75.45;100571.50;5053147;28;20079;-49
2022/07/24 06:36:23;;;;;;;16.27;11.18;;;;;;;20.99;75.03;100574.66;5052939;28;20040;-50
2022/07/24 06:38:49;;;;;;;15.30;10.77;;;;;;;21.05;75.39;100571.03;5052981;28;20418;-50
2022/07/24 06:41:15;;;;;;;18.52;11.63;;;;;;;21.13;75.26;100576.94;5052566;28;20041;-51
2022/07/24 06:43:40;;;;;;;14.07;10.18;;;;;;;21.24;74.41;100571.75;5052737;28;20044;-51
2022/07/24 06:46:06;;;;;;;16.17;11.18;;;;;;;21.28;75.13;100573.78;5052208;28;20579;-49
2022/07/24 06:48:32;;;;;;;18.52;11.38;;;;;;;21.44;74.28;100572.25;5052963;28;20108;-46
2022/07/24 06:50:58;;;;;;;15.88;10.50;;;;;;;21.58;72.75;100570.09;5052174;28;20029;-49
2022/07/24 06:53:24;;;;;;;16.25;10.52;;;;;;;21.62;72.54;100569.41;5052788;28;20063;-48
2022/07/24 06:55:53;;;;;;;18.80;12.30;;;;;;;21.74;72.96;100572.09;5052547;28;20196;-46
2022/07/24 06:58:19;;;;;;;17.38;11.50;;;;;;;21.92;72.54;100569.22;5052524;28;20048;-54
2022/07/24 07:00:46;;;;;;;18.77;12.25;;;;;;;21.92;72.98;100569.22;5052025;28;20044;-52
2022/07/24 07:03:11;;;;;;;16.35;11.63;;;;;;;22.00;73.04;100572.63;5052803;28;20110;-46
2022/07/24 07:05:37;;;;;;;18.58;12.38;;;;;;;22.09;71.41;100573.91;5052432;28;20076;-50
2022/07/24 07:08:02;;;;;;;16.77;11.55;;;;;;;22.15;72.38;100573.78;5052564;28;20052;-47
2022/07/24 07:10:28;;;;;;;17.00;11.27;;;;;;;22.22;72.24;100570.91;5051805;28;20040;-49
2022/07/24 07:12:53;;;;;;;18.67;11.40;;;;;;;22.26;72.41;100569.38;5052444;28;20452;-49
2022/07/24 07:15:19;;;;;;;15.45;10.93;;;;;;;22.32;72.97;100567.59;5052210;28;20131;-52
2022/07/24 07:17:44;;;;;;;15.25;11.43;;;;;;;22.39;72.52;100571.78;5052181;28;20475;-46
2022/07/24 07:20:11;;;;;;;17.58;10.50;;;;;;;22.52;71.28;100578.00;5051781;28;20041;-63
2022/07/24 07:22:37;;;;;;;14.73;11.52;;;;;;;22.59;71.60;100567.81;5052234;28;20030;-54
2022/07/24 07:25:03;;;;;;;14.43;10.13;;;;;;;22.79;68.90;100565.44;5051929;28;20063;-55
2022/07/24 07:27:29;;;;;;;14.23;9.90;;;;;;;22.86;69.46;100562.56;5052134;28;20041;-52
2022/07/24 07:29:54;;;;;;;14.40;10.35;;;;;;;22.97;68.51;100567.13;5049839;28;20107;-54
2022/07/24 07:32:20;;;;;;;15.60;10.18;;;;;;;23.07;68.97;100563.72;5051921;28;20029;-56
2022/07/24 07:34:45;;;;;;;16.63;10.25;;;;;;;23.19;68.60;100559.03;5051859;28;20055;-53
2022/07/24 07:37:10;;;;;;;13.57;10.45;;;;;;;23.29;67.14;100556.47;5054490;28;20033;-50
2022/07/24 07:39:36;;;;;;;15.32;10.23;;;;;;;23.41;67.21;100551.75;5067526;28;20040;-51
2022/07/24 07:42:01;;;;;;;12.20;8.80;;;;;;;23.59;64.72;100557.97;5071812;28;20036;-51
2022/07/24 07:44:27;;;;;;;14.93;9.90;;;;;;;23.66;65.14;100550.47;5072083;28;20207;-49
2022/07/24 07:46:52;;;;;;;16.08;10.65;;;;;;;23.82;64.95;100553.13;5071934;28;20044;-50
2022/07/24 07:49:18;;;;;;;12.82;9.35;;;;;;;23.93;63.44;100550.53;5071610;28;20044;-51
2022/07/24 07:51:47;;;;;;;15.25;10.02;;;;;;;23.94;63.75;100547.56;5071975;28;20069;-51
2022/07/24 07:54:14;;;;;;;14.38;10.38;;;;;;;24.01;64.20;100541.94;5071778;28;20378;-66
2022/07/24 07:56:40;;;;;;;14.75;9.68;;;;;;;24.08;64.20;100548.00;5071599;28;20431;-66
2022/07/24 07:59:05;;;;;;;12.40;9.57;;;;;;;24.16;63.40;100541.28;5071364;28;20047;-67
2022/07/24 08:01:31;;;;;;;14.38;9.40;;;;;;;24.29;62.69;100538.16;5071565;28;20037;-66
2022/07/24 08:03:56;;;;;;;16.25;10.25;;;;;;;24.41;64.18;100533.41;5071396;28;20409;-66
2022/07/24 08:06:22;;;;;;;14.85;10.60;;;;;;;24.52;61.74;100543.31;5071267;28;20500;-65
2022/07/24 08:08:47;;;;;;;14.02;9.43;;;;;;;24.71;60.68;100538.28;5071353;28;20039;-66
2022/07/24 08:11:13;;;;;;;13.07;8.73;;;;;;;24.77;61.65;100542.69;5071382;28;20029;-65
2022/07/24 08:13:38;;;;;;;13.27;9.23;;;;;;;24.87;60.70;100540.06;5071430;28;20033;-66
2022/07/24 08:16:04;;;;;;;12.38;9.43;;;;;;;24.96;59.71;100534.13;5071522;28;20037;-66
2022/07/24 08:18:29;;;;;;;14.25;9.80;;;;;;;25.05;58.84;100541.59;5071516;28;20085;-66
2022/07/24 08:20:55;;;;;;;16.08;9.43;;;;;;;25.11;60.16;100537.00;5070979;28;20132;-65
2022/07/24 08:23:20;;;;;;;10.07;8.15;;;;;;;25.38;57.79;100545.06;5071340;28;20043;-66
2022/07/24 08:25:46;;;;;;;11.35;8.60;;;;;;;25.46;56.88;100536.38;5071371;28;20072;-68
2022/07/24 08:28:11;;;;;;;12.70;9.13;;;;;;;25.62;56.30;100540.00;5071359;28;20044;-66
2022/07/24 08:30:37;;;;;;;11.63;8.38;;;;;;;25.70;55.60;100544.97;5071257;28;20044;-67
2022/07/24 08:33:02;;;;;;;12.23;8.65;;;;;;;25.83;56.17;100540.97;5070121;28;20400;-65
2022/07/24 08:35:28;;;;;;;13.15;8.90;;;;;;;25.91;55.51;100538.53;5070055;28;20044;-66
2022/07/24 08:37:53;;;;;;;9.93;8.00;;;;;;;25.99;54.80;100537.19;5071287;28;20055;-66
2022/07/24 08:40:19;;;;;;;11.18;8.48;;;;;;;26.11;54.08;100531.47;5071083;28;20043;-68
2022/07/24 08:42:45;;;;;;;9.77;8.32;;;;;;;26.15;54.83;100529.88;5071346;28;20469;-64
2022/07/24 08:45:10;;;;;;;10.73;8.85;;;;;;;26.21;53.36;100532.34;5071222;28;20044;-66
2022/07/24 08:47:39;;;;;;;12.30;8.43;;;;;;;26.45;54.22;100542.75;5068272;28;20280;-65
2022/07/24 08:50:05;;;;;;;11.15;8.27;;;;;;;26.52;54.00;100532.41;5057331;28;20029;-66
2022/07/24 08:52:33;;;;;;;9.32;7.47;;;;;;;26.56;54.80;100543.59;5060526;28;20049;-63
2022/07/24 08:54:58;;;;;;;9.60;8.10;;;;;;;26.66;52.77;100538.94;5059544;28;20047;-66
2022/07/24 08:57:24;;;;;;;9.77;7.43;;;;;;;26.89;52.06;100537.59;5061173;28;20029;-66
2022/07/24 08:59:49;;;;;;;11.95;8.57;;;;;;;27.10;50.97;100541.16;5059151;28;20036;-65
2022/07/24 09:02:15;;;;;;;9.45;7.53;;;;;;;27.23;50.42;100539.75;5064967;28;20056;-65
2022/07/24 09:04:44;;;;;;;13.05;7.47;;;;;;;27.33;48.99;100536.19;5070822;28;20036;-66
2022/07/24 09:07:18;;;;;;;9.55;7.60;;;;;;;27.39;50.46;100537.81;5070674;28;20036;-65
2022/07/24 09:09:57;;;;;;;11.48;7.50;;;;;;;27.47;49.42;100531.78;5074023;28;20497;-65
2022/07/24 09:12:22;;;;;;;11.63;8.10;;;;;;;27.66;48.76;100530.06;5074816;28;20033;-66
2022/07/24 09:14:48;;;;;;;10.38;7.50;;;;;;;27.88;49.64;100531.63;5074621;28;20033;-66
2022/07/24 09:17:16;;;;;;;8.52;7.10;;;;;;;27.88;49.98;100532.44;5074516;28;20076;-65
2022/07/24 09:19:55;;;;;;;8.50;7.35;;;;;;;28.03;49.66;100529.63;5074276;28;20039;-65
2022/07/24 09:22:33;;;;;;;8.88;7.13;;;;;;;28.16;48.32;100522.72;5074394;28;20028;-65
2022/07/24 09:25:07;;;;;;;12.95;7.63;;;;;;;28.34;49.03;100527.56;5074588;28;20094;-56
2022/07/24 09:27:34;;;;;;;14.10;7.18;;;;;;;28.32;49.33;100526.22;5074503;28;20036;-57
2022/07/24 09:30:00;;;;;;;9.20;6.63;;;;;;;28.50;47.58;100522.78;5074101;28;20035;-53
2022/07/24 09:32:25;;;;;;;7.80;6.32;;;;;;;28.64;45.24;100528.44;5074541;28;20028;-63
2022/07/24 09:34:53;;;;;;;9.20;6.53;;;;;;;28.83;44.46;100532.09;5074595;28;20497;-64
2022/07/24 09:37:19;;;;;;;;;;;;;;;28.90;45.01;100527.09;5074640;28;20033;-64
2022/07/24 09:39:44;;;;;;;7.07;6.13;;;;;;;29.11;44.89;100529.69;5074131;28;19920;-64
2022/07/24 09:42:10;;;;;;;7.65;6.32;;;;;;;29.13;42.37;100524.72;5074122;28;20117;-63
2022/07/24 09:44:36;;;;;;;10.17;6.90;;;;;;;29.63;44.55;100528.84;5074305;28;20036;-63
2022/07/24 09:47:04;;;;;;;8.48;6.63;;;;;;;29.82;43.18;100517.91;5074006;28;20036;-63
2022/07/24 09:49:30;;;;;;;7.45;6.25;;;;;;;29.76;41.74;100518.25;5073748;28;20033;-59
2022/07/24 09:52:05;;;;;;;10.17;5.83;;;;;;;29.91;42.00;100518.88;5074053;28;20086;-60
2022/07/24 09:54:33;;;;;;;8.15;5.93;;;;;;;29.98;42.66;100508.31;5074067;28;20689;-60
2022/07/24 09:57:22;;;;;;;6.45;5.85;;;;;;;30.36;42.19;100513.03;5072468;28;20051;-59
2022/07/24 09:59:53;;;;;;;8.68;5.60;;;;;;;30.26;40.57;100505.78;5073657;28;20040;-61
2022/07/24 10:02:21;;;;;;;7.60;6.10;;;;;;;30.28;40.23;100509.03;5073764;28;20089;-59
2022/07/24 10:04:48;;;;;;;7.80;5.70;;;;;;;30.40;38.12;100503.09;5073904;28;20029;-61
2022/07/24 10:07:16;;;;;;;6.18;5.57;;;;;;;30.54;40.18;100504.75;5073731;28;20033;-60
2022/07/24 10:09:44;;;;;;;5.85;5.20;;;;;;;30.90;38.28;100506.91;5073727;28;20438;-60
2022/07/24 10:12:16;;;;;;;6.28;4.93;;;;;;;30.96;36.25;100491.97;5073618;28;20032;-61
2022/07/24 10:14:47;;;;;;;5.65;5.15;;;;;;;31.15;36.48;100496.56;5073780;28;20047;-59
2022/07/24 10:17:14;;;;;;;5.68;4.78;;;;;;;31.44;35.84;100494.38;5072315;28;20055;-60
2022/07/24 10:19:51;;;;;;;5.63;5.03;;;;;;;31.51;36.12;100493.97;5073220;28;20031;-60
2022/07/24 10:22:19;;;;;;;7.25;4.95;;;;;;;31.73;33.88;100494.03;5073400;28;20036;-59
2022/07/24 10:24:56;;;;;;;6.38;5.07;;;;;;;31.94;33.53;100493.59;5073540;28;20043;-59
2022/07/24 10:27:32;;;;;;;5.30;4.45;;;;;;;32.01;35.69;100494.78;5073328;28;20406;-60
2022/07/24 10:30:00;;;;;;;5.97;4.75;;;;;;;32.47;33.88;100493.72;5073088;28;20071;-58
2022/07/24 10:32:29;;;;;;;6.10;4.95;;;;;;;32.56;32.84;100485.53;5073607;28;20040;-59
2022/07/24 10:35:06;;;;;;;5.68;5.07;;;;;;;32.44;33.94;100488.06;5073531;28;20033;-59
2022/07/24 10:37:32;;;;;;;5.88;4.85;;;;;;;32.97;34.08;100482.53;5073256;28;20029;-55
2022/07/24 10:40:11;;;;;;;5.13;4.60;;;;;;;32.89;33.85;100478.63;5073105;28;20044;-59
2022/07/24 10:43:04;;;;;;;5.97;4.80;;;;;;;33.15;31.35;100480.69;5072996;28;20032;-60
2022/07/24 10:45:31;;;;;;;5.18;4.68;;;;;;;33.54;32.70;100487.34;5072966;28;20405;-60
2022/07/24 10:47:57;;;;;;;5.28;4.28;;;;;;;34.00;33.02;100484.00;5073037;28;20086;-60
2022/07/24 10:50:23;;;;;;;5.13;4.63;;;;;;;34.01;31.50;100480.09;5072676;28;20066;-60
2022/07/24 10:52:49;;;;;;;5.40;4.20;;;;;;;34.18;30.64;100482.88;5072854;28;20042;-60
2022/07/24 10:55:34;;;;;;;5.03;4.50;;;;;;;34.35;30.55;100481.22;5072833;28;20383;-60
2022/07/24 10:58:02;;;;;;;4.60;4.10;;;;;;;34.01;30.54;100474.59;5072923;28;20040;-60
2022/07/24 11:00:36;;;;;;;5.38;3.90;;;;;;;34.20;30.78;100477.84;5072513;28;20048;-59
2022/07/24 11:03:17;;;;;;;4.50;4.10;;;;;;;34.55;29.49;100466.75;5072771;28;20040;-57
2022/07/24 11:06:01;;;;;;;5.78;4.30;;;;;;;34.46;30.47;100469.53;5072605;28;20421;-59
2022/07/24 11:08:31;;;;;;;4.85;3.40;;;;;;;34.37;30.15;100465.97;5072647;28;20064;-60
2022/07/24 11:11:26;;;;;;;4.40;4.00;;;;;;;34.77;30.07;100461.00;5072135;28;20096;-60
2022/07/24 11:13:53;;;;;;;6.60;3.85;;;;;;;34.45;30.98;100461.56;5072542;28;20042;-59
2022/07/24 11:16:21;;;;;;;4.10;3.72;;;;;;;34.35;28.59;100462.69;5072239;28;20043;-60
2022/07/24 11:18:46;;;;;;;4.00;3.70;;;;;;;34.89;28.44;100451.22;5072252;28;20037;-60
2022/07/24 11:21:12;;;;;;;4.37;3.97;;;;;;;35.22;27.28;100446.69;5072095;28;20094;-58
2022/07/24 11:23:37;;;;;;;4.17;3.77;;;;;;;35.34;27.12;100448.72;5072269;28;20032;-58
2022/07/24 11:26:31;;;;;;;4.90;4.50;;;;;;;35.25;26.94;100442.44;5072200;28;20127;-60
2022/07/24 11:29:17;;;;;;;5.45;4.88;;;;;;;35.72;27.70;100440.34;5071957;28;20040;-60
2022/07/24 11:31:48;;;;;;;5.07;4.13;;;;;;;35.97;28.09;100437.75;5071609;28;20042;-60
2022/07/24 11:34:13;;;;;;;4.20;3.70;;;;;;;35.65;27.22;100437.31;5072162;28;20064;-60
2022/07/24 11:36:44;;;;;;;5.57;4.47;;;;;;;35.98;27.84;100439.38;5072065;28;20059;-60
2022/07/24 11:39:09;;;;;;;4.55;4.10;;;;;;;35.97;27.38;100432.19;5071695;28;20111;-60
2022/07/24 11:41:53;;;;;;;4.27;3.43;;;;;;;35.84;26.55;100423.78;5070704;28;20468;-60
2022/07/24 11:44:24;;;;;;;4.13;3.17;;;;;;;35.90;26.55;100421.63;5071743;28;20047;-59
2022/07/24 11:46:50;;;;;;;4.53;3.60;;;;;;;35.85;26.01;100416.28;5071947;28;20037;-60
2022/07/24 11:49:15;;;;;;;3.73;3.40;;;;;;;35.70;27.37;100419.69;5071534;28;20035;-60
2022/07/24 11:51:45;;;;;;;5.40;4.70;;;;;;;36.29;26.86;100412.00;5071704;28;20035;-60
2022/07/24 11:54:12;;;;;;;5.60;4.90;;;;;;;36.85;26.87;100412.38;5071773;28;20036;-59
2022/07/24 11:56:38;;;;;;;4.30;3.50;;;;;;;36.95;27.17;100406.38;5071909;28;20463;-59
2022/07/24 11:59:04;;;;;;;4.32;3.92;;;;;;;36.71;26.32;100408.28;5071551;28;20037;-60
2022/07/24 12:01:29;;;;;;;3.92;3.53;;;;;;;36.29;27.14;100397.31;5071772;28;20081;-59
2022/07/24 12:03:59;;;;;;;4.90;4.20;;;;;;;36.48;26.24;100396.81;5071784;28;20078;-59
2022/07/24 12:06:26;;;;;;;4.60;4.20;;;;;;;36.15;25.28;100400.41;5071534;28;20044;-60
2022/07/24 12:08:58;;;;;;;4.03;3.25;;;;;;;36.15;25.21;100386.53;5071670;28;20047;-60
2022/07/24 12:11:23;;;;;;;4.32;3.25;;;;;;;35.60;26.96;100374.63;5071499;28;20392;-61
2022/07/24 12:13:52;;;;;;;5.03;3.87;;;;;;;36.42;25.37;100376.81;5071519;28;20040;-59
2022/07/24 12:16:25;;;;;;;4.65;3.70;;;;;;;37.13;26.26;100372.84;5071494;28;20040;-61
2022/07/24 12:18:50;;;;;;;4.15;3.75;;;;;;;37.08;25.54;100373.88;5071390;28;20436;-60
2022/07/24 12:21:18;;;;;;;6.10;3.60;;;;;;;36.85;24.95;100365.19;5071329;28;20032;-61
2022/07/24 12:23:46;;;;;;;4.93;3.83;;;;;;;35.08;26.06;100363.91;5071389;28;20036;-60
2022/07/24 12:26:12;;;;;;;3.83;3.53;;;;;;;36.28;27.32;100362.44;5071478;28;20070;-59
2022/07/24 12:28:37;;;;;;;3.93;3.53;;;;;;;36.61;25.71;100363.22;5071411;28;20469;-61
2022/07/24 12:31:10;;;;;;;4.17;3.47;;;;;;;37.03;25.70;100351.09;5071065;28;20071;-61
2022/07/24 12:33:36;;;;;;;4.55;3.72;;;;;;;37.28;24.60;100352.66;5071456;28;20036;-61
2022/07/24 12:36:08;;;;;;;4.30;3.50;;;;;;;37.31;25.04;100346.44;5070404;28;20044;-60
2022/07/24 12:38:36;;;;;;;3.78;3.47;;;;;;;37.37;24.36;100347.03;5071344;28;20033;-60
2022/07/24 12:41:04;;;;;;;3.80;3.50;;;;;;;37.50;25.09;100345.81;5071135;28;20060;-61
2022/07/24 12:43:30;;;;;;;3.90;3.60;;;;;;;37.61;24.86;100346.94;5073533;28;20089;-61
2022/07/24 12:46:09;;;;;;;3.73;2.93;;;;;;;37.55;24.47;100339.19;5075474;28;20115;-61
2022/07/24 12:48:35;;;;;;;3.50;3.20;;;;;;;38.09;24.13;100330.44;5075281;28;20295;-60
2022/07/24 12:51:12;;;;;;;3.65;3.30;;;;;;;38.00;24.70;100325.81;5075052;28;20586;-58
2022/07/24 12:53:41;;;;;;;4.15;3.33;;;;;;;37.95;24.61;100325.25;5075197;28;20063;-61
2022/07/24 12:56:15;;;;;;;4.47;3.63;;;;;;;37.97;22.70;100322.97;5075068;28;20219;-60
2022/07/24 12:59:00;;;;;;;4.63;3.40;;;;;;;38.25;23.16;100320.94;5075225;28;20052;-61
2022/07/24 13:01:29;;;;;;;3.75;3.28;;;;;;;37.71;22.82;100328.97;5074818;28;20474;-60
2022/07/24 13:03:57;;;;;;;3.83;3.53;;;;;;;38.08;23.49;100318.47;5069184;28;20029;-60
2022/07/24 13:06:41;;;;;;;4.10;3.67;;;;;;;38.18;23.32;100312.38;5063696;28;20037;-60
2022/07/24 13:09:08;;;;;;;3.83;3.53;;;;;;;38.50;23.31;100313.22;5064172;28;20161;-62
2022/07/24 13:11:35;;;;;;;4.25;3.05;;;;;;;38.49;23.06;100296.91;5065251;28;20033;-61
2022/07/24 13:14:01;;;;;;;3.40;3.10;;;;;;;38.74;23.08;100298.34;5063027;28;20082;-60
2022/07/24 13:16:29;;;;;;;4.13;3.72;;;;;;;38.92;22.59;100297.94;5054752;28;20509;-61
2022/07/24 13:18:55;;;;;;;5.00;4.50;;;;;;;39.86;22.07;100299.56;5054483;28;20077;-61
2022/07/24 13:21:20;;;;;;;5.20;3.63;;;;;;;39.38;23.49;100290.59;5054344;28;20072;-61
2022/07/24 13:23:45;;;;;;;3.80;3.23;;;;;;;38.59;22.99;100293.56;5054741;28;20064;-60
2022/07/24 13:26:11;;;;;;;3.50;3.00;;;;;;;37.91;24.79;100285.47;5054436;28;20763;-60
2022/07/24 13:28:36;;;;;;;4.03;3.30;;;;;;;37.69;23.58;100284.88;5054442;28;20041;-61
2022/07/24 13:31:02;;;;;;;3.30;3.00;;;;;;;37.62;24.52;100294.94;5054133;28;20372;-60
2022/07/24 13:33:28;;;;;;;4.10;2.95;;;;;;;37.16;25.19;100288.84;5054462;28;20175;-61
2022/07/24 13:35:53;;;;;;;3.40;3.10;;;;;;;36.63;24.95;100287.97;5054202;28;20037;-60
2022/07/24 13:38:18;;;;;;;4.30;3.50;;;;;;;36.50;25.56;100278.81;5054327;28;20033;-61
2022/07/24 13:40:44;;;;;;;3.60;3.20;;;;;;;35.97;26.11;100274.25;5054046;28;20486;-59
2022/07/24 13:43:09;;;;;;;4.37;3.97;;;;;;;35.38;27.12;100272.47;5054276;28;20526;-58
2022/07/24 13:45:35;;;;;;;3.70;3.40;;;;;;;35.23;26.93;100276.69;5054273;28;20043;-57
2022/07/24 13:48:01;;;;;;;3.50;3.20;;;;;;;34.91;26.98;100269.09;5054316;28;20037;-60
2022/07/24 13:50:27;;;;;;;3.65;3.13;;;;;;;34.73;28.12;100258.13;5053874;28;20464;-60
2022/07/24 13:52:52;;;;;;;4.60;3.30;;;;;;;34.56;27.91;100258.25;5053985;28;20398;-59
2022/07/24 13:55:18;;;;;;;4.43;4.03;;;;;;;34.21;27.84;100255.59;5053582;28;20040;-58
2022/07/24 13:57:43;;;;;;;5.40;4.90;;;;;;;34.18;28.22;100245.22;5054273;28;20541;-61
2022/07/24 14:00:10;;;;;;;3.97;3.50;;;;;;;34.23;29.12;100244.19;5053759;28;20532;-60
2022/07/24 14:02:35;;;;;;;3.63;3.05;;;;;;;34.01;28.73;100245.25;5054011;28;20528;-59
2022/07/24 14:05:01;;;;;;;5.73;3.73;;;;;;;33.94;28.47;100242.19;5053895;28;20029;-57
2022/07/24 14:07:26;;;;;;;3.73;3.33;;;;;;;33.70;29.79;100232.47;5053794;28;20061;-60
2022/07/24 14:09:54;;;;;;;4.30;3.37;;;;;;;33.68;29.86;100232.00;5053543;28;20545;-57
2022/07/24 14:12:20;;;;;;;4.38;3.15;;;;;;;33.37;29.87;100229.41;5053701;28;20041;-57
2022/07/24 14:14:46;;;;;;;5.20;3.80;;;;;;;33.13;29.63;100224.41;5053759;28;20099;-61
2022/07/24 14:17:11;;;;;;;3.80;3.50;;;;;;;33.09;29.22;100220.66;5053630;28;20036;-60
2022/07/24 14:19:38;;;;;;;5.00;4.37;;;;;;;33.02;29.79;100219.53;5053346;28;20037;-61
2022/07/24 14:22:03;;;;;;;5.55;4.07;;;;;;;33.09;30.28;100212.38;5056165;28;20032;-59
2022/07/24 14:24:29;;;;;;;4.30;3.90;;;;;;;32.98;31.28;100210.25;5068493;28;20123;-60
2022/07/24 14:26:54;;;;;;;3.80;3.50;;;;;;;32.72;29.97;100210.22;5073502;28;20458;-60
2022/07/24 14:29:20;;;;;;;5.23;3.70;;;;;;;32.87;30.35;100210.59;5073130;28;20165;-60
2022/07/24 14:31:45;;;;;;;4.17;3.77;;;;;;;32.87;30.35;100199.56;5073352;28;20379;-59
2022/07/24 14:34:10;;;;;;;4.20;3.53;;;;;;;32.66;31.42;100204.03;5073385;28;20379;-59
2022/07/24 14:36:36;;;;;;;3.83;3.33;;;;;;;32.75;31.43;100196.59;5072204;28;20028;-60
2022/07/24 14:39:02;;;;;;;4.17;3.77;;;;;;;32.77;30.66;100188.00;5073204;28;20040;-60
2022/07/24 14:41:28;;;;;;;4.03;3.63;;;;;;;32.70;30.21;100191.22;5071792;28;20068;-60
2022/07/24 14:43:53;;;;;;;5.40;3.60;;;;;;;32.72;30.61;100179.88;5071923;28;20517;-60
2022/07/24 14:46:19;;;;;;;4.30;3.40;;;;;;;32.47;30.47;100186.97;5073102;28;20397;-61
2022/07/24 14:48:44;;;;;;;6.97;4.03;;;;;;;32.44;30.60;100185.69;5072964;28;20044;-60
2022/07/24 14:51:10;;;;;;;5.00;4.10;;;;;;;32.40;30.39;100184.69;5072751;28;20037;-63
2022/07/24 14:53:35;;;;;;;4.43;4.03;;;;;;;32.27;30.78;100185.59;5072903;28;20040;-61
2022/07/24 14:56:01;;;;;;;5.50;3.77;;;;;;;32.27;31.15;100175.38;5072966;28;20036;-61
2022/07/24 14:58:26;;;;;;;3.80;3.50;;;;;;;32.17;31.28;100181.19;5072878;28;20037;-62
2022/07/24 15:00:52;;;;;;;4.07;3.73;;;;;;;32.08;31.25;100177.56;5072611;28;20090;-59
2022/07/24 15:03:17;;;;;;;4.07;3.67;;;;;;;32.03;31.03;100170.28;5072784;28;20044;-61
2022/07/24 15:05:43;;;;;;;4.03;3.63;;;;;;;31.81;31.14;100162.06;5071983;28;20037;-60
2022/07/24 15:08:08;;;;;;;3.63;3.23;;;;;;;31.89;31.64;100164.09;5072645;28;20046;-60
2022/07/24 15:10:33;;;;;;;4.63;3.87;;;;;;;31.93;31.88;100162.28;5072357;28;20075;-61
2022/07/24 15:12:59;;;;;;;4.60;3.63;;;;;;;31.71;32.23;100149.38;5072639;28;20040;-59
2022/07/24 15:15:24;;;;;;;4.07;3.67;;;;;;;31.88;32.31;100148.66;5072370;28;20033;-57
2022/07/24 15:17:50;;;;;;;4.80;3.83;;;;;;;31.95;31.56;100145.44;5071259;28;20123;-59
2022/07/24 15:20:15;;;;;;;4.37;3.90;;;;;;;31.84;32.14;100142.19;5072073;28;20028;-60
2022/07/24 15:22:41;;;;;;;4.25;3.85;;;;;;;32.02;31.64;100145.81;5071023;28;20391;-58
2022/07/24 15:25:07;;;;;;;5.00;4.23;;;;;;;31.94;32.62;100141.06;5072397;28;20378;-60
2022/07/24 15:27:33;;;;;;;4.10;3.75;;;;;;;32.03;32.44;100130.91;5072352;28;20040;-60
2022/07/24 15:29:58;;;;;;;4.10;3.67;;;;;;;32.07;32.68;100123.63;5071968;28;20044;-61
2022/07/24 15:32:24;;;;;;;4.43;4.03;;;;;;;32.13;31.88;100127.84;5072083;28;20082;-61
2022/07/24 15:34:49;;;;;;;5.03;3.83;;;;;;;31.72;31.83;100122.66;5072166;28;20071;-61
2022/07/24 15:37:15;;;;;;;4.97;4.25;;;;;;;31.95;31.82;100117.91;5070780;28;20098;-61
2022/07/24 15:39:40;;;;;;;4.90;4.40;;;;;;;31.94;32.29;100111.59;5071795;28;20036;-62
2022/07/24 15:42:06;;;;;;;5.32;4.47;;;;;;;31.97;31.49;100104.66;5072166;28;20432;-59